createdAt,value
2022-10-01T00:00:02.103Z,100.00
2022-10-01T00:05:26.188Z,100.00
2022-10-01T00:10:30.621Z,100.00
2022-10-01T00:15:33.727Z,100.00
2022-10-01T00:20:43.697Z,100.00
2022-10-01T00:25:46.800Z,100.00
2022-10-01T00:30:49.803Z,100.00
2022-10-01T00:35:55.091Z,100.00
2022-10-01T00:40:58.881Z,100.00
2022-10-01T00:46:18.730Z,100.00
2022-10-01T00:51:23.219Z,100.00
2022-10-01T00:56:26.629Z,100.00
2022-10-01T01:01:29.685Z,100.00
2022-10-01T01:06:32.841Z,100.00
2022-10-01T01:11:55.914Z,100.00
2022-10-01T01:17:08.812Z,100.00
2022-10-01T01:22:14.419Z,100.00
2022-10-01T01:27:46.619Z,100.00
2022-10-01T01:33:13.155Z,100.00
2022-10-01T01:38:22.293Z,100.00
2022-10-01T01:43:31.462Z,100.00
2022-10-01T01:48:37.926Z,100.00
2022-10-01T01:53:41.411Z,100.00
2022-10-01T01:58:46.091Z,100.00
2022-10-01T02:03:49.505Z,100.00
2022-10-01T02:08:55.271Z,100.00
2022-10-01T02:14:04.215Z,100.00
2022-10-01T02:19:20.120Z,100.00
2022-10-01T02:24:41.659Z,100.00
2022-10-01T02:29:45.994Z,100.00
2022-10-01T02:34:51.221Z,100.00
2022-10-01T02:39:57.584Z,100.00
2022-10-01T02:45:03.547Z,100.00
2022-10-01T02:50:08.732Z,100.00
2022-10-01T02:55:23.638Z,100.00
2022-10-01T03:00:27.257Z,100.00
2022-10-01T03:05:31.285Z,100.00
2022-10-01T03:10:35.003Z,100.00
2022-10-01T03:15:38.056Z,100.00
2022-10-01T03:20:41.215Z,100.00
2022-10-01T03:25:44.220Z,100.00
2022-10-01T03:30:47.220Z,100.00
2022-10-01T03:35:50.224Z,100.00
2022-10-01T03:40:53.536Z,100.00
2022-10-01T03:45:57.031Z,100.00
2022-10-01T03:51:00.975Z,100.00
2022-10-01T03:56:05.412Z,100.00
2022-10-01T04:01:08.518Z,100.00
2022-10-01T04:06:12.648Z,100.00
2022-10-01T04:11:15.855Z,100.00
2022-10-01T04:16:19.170Z,100.00
2022-10-01T04:21:22.270Z,100.00
2022-10-01T04:26:25.478Z,100.00
2022-10-01T04:31:35.284Z,100.00
2022-10-01T04:36:38.963Z,100.00
2022-10-01T04:41:42.174Z,100.00
2022-10-01T04:46:45.292Z,100.00
2022-10-01T04:51:48.583Z,100.00
2022-10-01T04:56:51.998Z,100.00
2022-10-01T05:01:55.029Z,100.00
2022-10-01T05:06:58.207Z,100.00
2022-10-01T05:12:01.954Z,100.00
2022-10-01T05:17:06.162Z,100.00
2022-10-01T05:22:09.264Z,100.00
2022-10-01T05:27:13.506Z,100.00
2022-10-01T05:32:16.808Z,100.00
2022-10-01T05:37:19.943Z,100.00
2022-10-01T05:42:23.018Z,100.00
2022-10-01T05:47:26.534Z,100.00
2022-10-01T05:52:29.742Z,98.67
2022-10-01T05:57:33.319Z,92.35
2022-10-01T06:02:36.531Z,85.90
2022-10-01T06:07:39.879Z,79.81
2022-10-01T06:12:46.247Z,73.74
2022-10-01T06:17:49.468Z,69.53
2022-10-01T06:22:57.386Z,65.29
2022-10-01T06:28:01.265Z,61.36
2022-10-01T06:33:13.223Z,57.18
2022-10-01T06:38:18.443Z,53.22
2022-10-01T06:43:22.761Z,51.21
2022-10-01T06:48:25.931Z,48.88
2022-10-01T06:53:29.759Z,44.01
2022-10-01T06:58:33.460Z,41.81
2022-10-01T07:03:36.673Z,40.69
2022-10-01T07:08:40.083Z,38.37
2022-10-01T07:13:43.188Z,36.54
2022-10-01T07:18:46.246Z,34.67
2022-10-01T07:23:49.401Z,32.05
2022-10-01T07:28:52.915Z,31.80
2022-10-01T07:33:59.296Z,30.15
2022-10-01T07:39:02.402Z,29.05
2022-10-01T07:44:05.611Z,28.10
2022-10-01T07:49:09.848Z,26.79
2022-10-01T07:54:13.972Z,25.34
2022-10-01T07:59:17.282Z,24.70
2022-10-01T08:04:40.152Z,24.69
2022-10-01T08:09:43.463Z,24.32
2022-10-01T08:14:48.118Z,24.19
2022-10-01T08:19:51.312Z,23.28
2022-10-01T08:24:54.978Z,22.66
2022-10-01T08:29:58.033Z,22.67
2022-10-01T08:35:01.564Z,22.18
2022-10-01T08:40:07.502Z,20.98
2022-10-01T08:45:27.633Z,21.45
2022-10-01T08:50:53.261Z,21.20
2022-10-01T08:55:57.934Z,20.92
2022-10-01T09:01:01.837Z,20.56
2022-10-01T09:06:11.576Z,20.15
2022-10-01T09:11:25.037Z,19.29
2022-10-01T09:16:56.205Z,19.23
2022-10-01T09:22:03.796Z,19.91
2022-10-01T09:27:19.538Z,20.79
2022-10-01T09:32:32.393Z,20.01
2022-10-01T09:37:49.173Z,18.77
2022-10-01T09:42:52.687Z,18.02
2022-10-01T09:48:04.183Z,18.25
2022-10-01T09:53:18.749Z,19.54
2022-10-01T09:58:27.091Z,22.00
2022-10-01T10:03:32.153Z,27.78
2022-10-01T10:08:43.461Z,32.54
2022-10-01T10:13:53.183Z,34.58
2022-10-01T10:19:07.175Z,37.39
2022-10-01T10:24:32.776Z,40.33
2022-10-01T10:29:37.866Z,42.02
2022-10-01T10:34:47.078Z,42.48
2022-10-01T10:39:52.361Z,43.67
2022-10-01T10:45:03.455Z,44.38
2022-10-01T10:50:30.742Z,45.68
2022-10-01T10:55:33.926Z,46.36
2022-10-01T11:00:46.548Z,47.44
2022-10-01T11:05:52.375Z,47.12
2022-10-01T11:11:34.253Z,48.23
2022-10-01T11:17:00.392Z,47.60
2022-10-01T11:22:24.585Z,47.57
2022-10-01T11:27:37.518Z,49.08
2022-10-01T11:33:09.866Z,48.57
2022-10-01T11:38:42.728Z,48.86
2022-10-01T11:43:55.761Z,48.18
2022-10-01T11:49:05.484Z,49.37
2022-10-01T11:54:15.685Z,49.72
2022-10-01T11:59:22.785Z,48.70
2022-10-01T12:04:42.863Z,48.58
2022-10-01T12:09:55.422Z,48.29
2022-10-01T12:15:14.906Z,49.77
2022-10-01T12:20:41.462Z,50.73
2022-10-01T12:25:55.430Z,51.75
2022-10-01T12:31:19.413Z,51.48
2022-10-01T12:37:04.815Z,52.19
2022-10-01T12:42:41.609Z,52.18
2022-10-01T12:48:16.767Z,52.01
2022-10-01T12:53:36.563Z,52.54
2022-10-01T12:59:07.831Z,53.36
2022-10-01T13:04:35.612Z,52.85
2022-10-01T13:10:16.402Z,54.17
2022-10-01T13:15:42.750Z,54.61
2022-10-01T13:21:01.835Z,55.33
2022-10-01T13:26:37.407Z,55.30
2022-10-01T13:32:02.762Z,55.27
2022-10-01T13:37:32.464Z,55.53
2022-10-01T13:42:47.897Z,55.55
2022-10-01T13:47:51.465Z,55.33
2022-10-01T13:53:14.385Z,55.83
2022-10-01T13:58:31.270Z,55.12
2022-10-01T14:03:45.020Z,55.06
2022-10-01T14:08:55.437Z,54.88
2022-10-01T14:14:23.082Z,55.69
2022-10-01T14:19:28.588Z,57.22
2022-10-01T14:24:51.098Z,58.36
2022-10-01T14:30:13.049Z,58.91
2022-10-01T14:35:43.084Z,59.82
2022-10-01T14:40:48.888Z,61.07
2022-10-01T14:45:59.200Z,61.89
2022-10-01T14:51:05.642Z,62.81
2022-10-01T14:56:14.455Z,63.27
2022-10-01T15:01:19.707Z,63.76
2022-10-01T15:06:28.242Z,64.24
2022-10-01T15:11:34.020Z,64.55
2022-10-01T15:16:38.335Z,65.35
2022-10-01T15:21:48.845Z,65.80
2022-10-01T15:26:54.553Z,66.32
2022-10-01T15:31:58.944Z,66.66
2022-10-01T15:37:02.942Z,67.46
2022-10-01T15:42:26.841Z,68.08
2022-10-01T15:47:35.175Z,68.76
2022-10-01T15:52:52.407Z,69.85
2022-10-01T15:58:07.495Z,70.75
2022-10-01T16:03:36.611Z,71.62
2022-10-01T16:08:55.586Z,72.79
2022-10-01T16:14:44.362Z,73.73
2022-10-01T16:19:50.975Z,74.83
2022-10-01T16:25:25.388Z,75.01
2022-10-01T16:30:30.004Z,75.70
2022-10-01T16:35:36.119Z,76.40
2022-10-01T16:40:44.997Z,77.61
2022-10-01T16:45:48.442Z,78.51
2022-10-01T16:50:59.070Z,78.84
2022-10-01T16:56:02.351Z,79.35
2022-10-01T17:01:11.957Z,79.51
2022-10-01T17:06:15.427Z,79.54
2022-10-01T17:11:18.703Z,79.89
2022-10-01T17:16:24.666Z,80.67
2022-10-01T17:21:29.709Z,80.59
2022-10-01T17:26:33.429Z,81.48
2022-10-01T17:31:38.563Z,81.47
2022-10-01T17:36:42.049Z,81.70
2022-10-01T17:41:45.311Z,81.81
2022-10-01T17:46:48.572Z,82.86
2022-10-01T17:51:53.317Z,82.86
2022-10-01T17:56:56.826Z,82.75
2022-10-01T18:02:01.312Z,83.02
2022-10-01T18:07:08.568Z,83.43
2022-10-01T18:12:13.639Z,83.60
2022-10-01T18:17:17.602Z,84.00
2022-10-01T18:22:22.054Z,84.79
2022-10-01T18:27:26.215Z,84.96
2022-10-01T18:32:37.970Z,85.17
2022-10-01T18:37:41.229Z,85.14
2022-10-01T18:43:08.876Z,84.98
2022-10-01T18:48:52.266Z,85.48
2022-10-01T18:54:13.555Z,85.97
2022-10-01T18:59:36.155Z,86.57
2022-10-01T19:04:45.405Z,86.91
2022-10-01T19:10:09.133Z,87.33
2022-10-01T19:15:40.568Z,87.21
2022-10-01T19:21:08.041Z,87.80
2022-10-01T19:26:29.381Z,88.13
2022-10-01T19:31:55.241Z,88.11
2022-10-01T19:37:11.529Z,88.79
2022-10-01T19:42:22.418Z,89.13
2022-10-01T19:47:41.086Z,89.33
2022-10-01T19:52:48.706Z,89.77
2022-10-01T19:57:53.032Z,90.16
2022-10-01T20:03:01.051Z,90.24
2022-10-01T20:08:14.719Z,90.72
2022-10-01T20:13:37.264Z,91.51
2022-10-01T20:18:52.563Z,91.88
2022-10-01T20:24:14.818Z,91.84
2022-10-01T20:29:58.475Z,92.72
2022-10-01T20:35:26.793Z,94.30
2022-10-01T20:40:52.852Z,95.77
2022-10-01T20:45:57.727Z,96.27
2022-10-01T20:51:07.105Z,96.64
2022-10-01T20:56:26.732Z,96.76
2022-10-01T21:01:35.115Z,97.13
2022-10-01T21:07:01.471Z,97.72
2022-10-01T21:12:16.593Z,97.98
2022-10-01T21:17:50.014Z,98.45
2022-10-01T21:23:14.547Z,98.59
2022-10-01T21:28:21.355Z,99.15
2022-10-01T21:33:31.594Z,99.43
2022-10-01T21:38:49.771Z,99.58
2022-10-01T21:44:11.133Z,99.91
2022-10-01T21:49:34.044Z,100.00
2022-10-01T21:55:14.855Z,100.00
2022-10-01T22:00:25.050Z,100.00
2022-10-01T22:06:13.016Z,100.00
2022-10-01T22:11:26.301Z,100.00
2022-10-01T22:16:38.728Z,100.00
2022-10-01T22:21:53.486Z,100.00
2022-10-01T22:27:08.984Z,100.00
2022-10-01T22:32:15.482Z,100.00
2022-10-01T22:37:24.713Z,100.00
2022-10-01T22:42:42.663Z,100.00
2022-10-01T22:48:39.790Z,100.00
2022-10-01T22:54:07.752Z,100.00
2022-10-01T22:59:35.893Z,100.00
2022-10-01T23:05:16.816Z,100.00
2022-10-01T23:10:34.770Z,100.00
2022-10-01T23:15:57.428Z,100.00
2022-10-01T23:21:00.541Z,100.00
2022-10-01T23:26:18.904Z,100.00
2022-10-01T23:32:00.445Z,100.00
2022-10-01T23:37:17.492Z,100.00
2022-10-01T23:42:28.124Z,100.00
2022-10-01T23:47:45.976Z,100.00
2022-10-01T23:53:03.537Z,100.00
2022-10-01T23:58:11.540Z,100.00
